sensor_id;sensor_type;location;lat;lon;timestamp;P1;durP1;ratioP1;P2;durP2;ratioP2
9938;SDS011;5008;50.656;7.188;2023-05-07T04:01:51;4.90;;;4.50;;
9938;SDS011;5008;50.656;7.188;2023-05-07T04:04:18;5.07;;;4.57;;
9938;SDS011;5008;50.656;7.188;2023-05-07T04:06:45;5.43;;;5.03;;
9938;SDS011;5008;50.656;7.188;2023-05-07T04:09:12;4.97;;;4.57;;
9938;SDS011;5008;50.656;7.188;2023-05-07T04:11:39;4.90;;;4.40;;
9938;SDS011;5008;50.656;7.188;2023-05-07T04:14:06;5.33;;;4.47;;
9938;SDS011;5008;50.656;7.188;2023-05-07T04:16:34;5.80;;;5.30;;
9938;SDS011;5008;50.656;7.188;2023-05-07T04:19:02;6.00;;;5.40;;
9938;SDS011;5008;50.656;7.188;2023-05-07T04:21:43;5.83;;;5.23;;
9938;SDS011;5008;50.656;7.188;2023-05-07T04:24:09;5.10;;;4.60;;
9938;SDS011;5008;50.656;7.188;2023-05-07T04:26:36;5.00;;;4.27;;
9938;SDS011;5008;50.656;7.188;2023-05-07T04:29:03;7.10;;;4.97;;
9938;SDS011;5008;50.656;7.188;2023-05-07T04:31:38;6.00;;;5.37;;
9938;SDS011;5008;50.656;7.188;2023-05-07T04:34:06;6.30;;;5.40;;
9938;SDS011;5008;50.656;7.188;2023-05-07T04:36:34;5.33;;;4.83;;
9938;SDS011;5008;50.656;7.188;2023-05-07T04:39:02;5.10;;;4.70;;
9938;SDS011;5008;50.656;7.188;2023-05-07T04:41:29;5.73;;;5.23;;
9938;SDS011;5008;50.656;7.188;2023-05-07T04:43:56;5.83;;;5.33;;
9938;SDS011;5008;50.656;7.188;2023-05-07T04:46:23;5.77;;;5.27;;
9938;SDS011;5008;50.656;7.188;2023-05-07T04:48:50;6.13;;;5.43;;
9938;SDS011;5008;50.656;7.188;2023-05-07T04:51:18;6.47;;;5.87;;
9938;SDS011;5008;50.656;7.188;2023-05-07T04:53:45;6.70;;;6.00;;
9938;SDS011;5008;50.656;7.188;2023-05-07T04:56:12;5.37;;;4.87;;
9938;SDS011;5008;50.656;7.188;2023-05-07T04:58:39;6.23;;;5.60;;
9938;SDS011;5008;50.656;7.188;2023-05-07T05:01:10;6.30;;;5.70;;
9938;SDS011;5008;50.656;7.188;2023-05-07T05:03:37;6.50;;;5.60;;
9938;SDS011;5008;50.656;7.188;2023-05-07T05:06:04;6.23;;;5.73;;
9938;SDS011;5008;50.656;7.188;2023-05-07T05:08:32;8.00;;;6.33;;
9938;SDS011;5008;50.656;7.188;2023-05-07T05:11:00;6.90;;;6.20;;
9938;SDS011;5008;50.656;7.188;2023-05-07T05:13:27;5.93;;;5.43;;
9938;SDS011;5008;50.656;7.188;2023-05-07T05:15:54;6.03;;;5.50;;
9938;SDS011;5008;50.656;7.188;2023-05-07T05:18:20;6.27;;;5.77;;
9938;SDS011;5008;50.656;7.188;2023-05-07T05:20:51;6.27;;;5.67;;
9938;SDS011;5008;50.656;7.188;2023-05-07T05:23:18;6.73;;;5.87;;
9938;SDS011;5008;50.656;7.188;2023-05-07T05:25:46;7.27;;;6.57;;
9938;SDS011;5008;50.656;7.188;2023-05-07T05:28:13;4.50;;;4.13;;
9938;SDS011;5008;50.656;7.188;2023-05-07T05:30:40;6.97;;;6.27;;
9938;SDS011;5008;50.656;7.188;2023-05-07T05:33:07;6.17;;;5.67;;
9938;SDS011;5008;50.656;7.188;2023-05-07T05:35:42;6.03;;;5.53;;
9938;SDS011;5008;50.656;7.188;2023-05-07T05:38:08;6.03;;;5.53;;
9938;SDS011;5008;50.656;7.188;2023-05-07T05:40:35;4.03;;;3.70;;
9938;SDS011;5008;50.656;7.188;2023-05-07T05:43:03;5.87;;;5.37;;
9938;SDS011;5008;50.656;7.188;2023-05-07T05:45:31;7.57;;;5.90;;
9938;SDS011;5008;50.656;7.188;2023-05-07T05:47:58;6.70;;;5.67;;
9938;SDS011;5008;50.656;7.188;2023-05-07T05:50:25;6.27;;;5.67;;
9938;SDS011;5008;50.656;7.188;2023-05-07T05:52:52;5.83;;;5.33;;
9938;SDS011;5008;50.656;7.188;2023-05-07T05:55:19;7.23;;;5.43;;
9938;SDS011;5008;50.656;7.188;2023-05-07T05:57:46;5.60;;;5.10;;
9938;SDS011;5008;50.656;7.188;2023-05-07T06:00:21;6.17;;;5.60;;
9938;SDS011;5008;50.656;7.188;2023-05-07T06:02:48;5.70;;;4.90;;
9938;SDS011;5008;50.656;7.188;2023-05-07T06:05:15;5.27;;;4.67;;
9938;SDS011;5008;50.656;7.188;2023-05-07T06:07:42;5.73;;;5.23;;
9938;SDS011;5008;50.656;7.188;2023-05-07T06:10:21;5.43;;;4.90;;
9938;SDS011;5008;50.656;7.188;2023-05-07T06:12:47;5.33;;;4.83;;
9938;SDS011;5008;50.656;7.188;2023-05-07T06:15:14;5.20;;;4.70;;
9938;SDS011;5008;50.656;7.188;2023-05-07T06:17:42;5.63;;;5.13;;
9938;SDS011;5008;50.656;7.188;2023-05-07T06:20:10;5.95;;;5.30;;
9938;SDS011;5008;50.656;7.188;2023-05-07T06:22:37;5.43;;;4.93;;
9938;SDS011;5008;50.656;7.188;2023-05-07T06:25:05;5.17;;;3.90;;
9938;SDS011;5008;50.656;7.188;2023-05-07T06:27:32;4.00;;;3.70;;
9938;SDS011;5008;50.656;7.188;2023-05-07T06:29:59;3.70;;;3.40;;
9938;SDS011;5008;50.656;7.188;2023-05-07T06:32:26;3.97;;;3.40;;
9938;SDS011;5008;50.656;7.188;2023-05-07T06:34:54;3.15;;;2.92;;
9938;SDS011;5008;50.656;7.188;2023-05-07T06:37:21;4.38;;;3.42;;
9938;SDS011;5008;50.656;7.188;2023-05-07T06:39:48;3.13;;;2.92;;
9938;SDS011;5008;50.656;7.188;2023-05-07T06:42:14;2.85;;;2.65;;
9938;SDS011;5008;50.656;7.188;2023-05-07T06:44:41;3.30;;;2.50;;
9938;SDS011;5008;50.656;7.188;2023-05-07T06:47:08;2.53;;;2.33;;
9938;SDS011;5008;50.656;7.188;2023-05-07T06:49:35;3.88;;;3.15;;
9938;SDS011;5008;50.656;7.188;2023-05-07T06:52:03;2.17;;;1.98;;
9938;SDS011;5008;50.656;7.188;2023-05-07T06:54:30;3.35;;;3.05;;
9938;SDS011;5008;50.656;7.188;2023-05-07T06:56:58;4.90;;;3.90;;
9938;SDS011;5008;50.656;7.188;2023-05-07T06:59:24;4.30;;;3.95;;
9938;SDS011;5008;50.656;7.188;2023-05-07T07:01:51;5.72;;;3.92;;
9938;SDS011;5008;50.656;7.188;2023-05-07T07:04:18;6.88;;;4.05;;
9938;SDS011;5008;50.656;7.188;2023-05-07T07:06:47;4.20;;;3.90;;
9938;SDS011;5008;50.656;7.188;2023-05-07T07:09:16;4.40;;;4.00;;
9938;SDS011;5008;50.656;7.188;2023-05-07T07:11:42;4.95;;;4.57;;
9938;SDS011;5008;50.656;7.188;2023-05-07T07:14:09;5.82;;;4.18;;
9938;SDS011;5008;50.656;7.188;2023-05-07T07:16:44;2.35;;;2.15;;
9938;SDS011;5008;50.656;7.188;2023-05-07T07:19:11;2.78;;;2.58;;
9938;SDS011;5008;50.656;7.188;2023-05-07T07:21:40;3.05;;;2.17;;
9938;SDS011;5008;50.656;7.188;2023-05-07T07:24:07;2.80;;;2.10;;
9938;SDS011;5008;50.656;7.188;2023-05-07T07:26:35;4.18;;;3.03;;
9938;SDS011;5008;50.656;7.188;2023-05-07T07:29:02;2.17;;;1.80;;
9938;SDS011;5008;50.656;7.188;2023-05-07T07:31:28;3.75;;;3.45;;
9938;SDS011;5008;50.656;7.188;2023-05-07T07:33:55;4.07;;;3.75;;
9938;SDS011;5008;50.656;7.188;2023-05-07T07:36:23;2.05;;;1.95;;
9938;SDS011;5008;50.656;7.188;2023-05-07T07:38:50;4.05;;;3.72;;
9938;SDS011;5008;50.656;7.188;2023-05-07T07:41:18;4.30;;;3.90;;
9938;SDS011;5008;50.656;7.188;2023-05-07T07:43:47;4.10;;;3.80;;
9938;SDS011;5008;50.656;7.188;2023-05-07T07:46:14;3.80;;;3.47;;
9938;SDS011;5008;50.656;7.188;2023-05-07T07:48:41;4.25;;;3.85;;
9938;SDS011;5008;50.656;7.188;2023-05-07T07:51:07;3.60;;;2.95;;
9938;SDS011;5008;50.656;7.188;2023-05-07T07:53:34;3.78;;;3.42;;
9938;SDS011;5008;50.656;7.188;2023-05-07T07:56:01;2.55;;;2.35;;
9938;SDS011;5008;50.656;7.188;2023-05-07T07:58:28;3.67;;;3.20;;
9938;SDS011;5008;50.656;7.188;2023-05-07T08:00:56;6.20;;;3.58;;
9938;SDS011;5008;50.656;7.188;2023-05-07T08:03:23;3.50;;;3.30;;
9938;SDS011;5008;50.656;7.188;2023-05-07T08:05:50;1.52;;;1.42;;
9938;SDS011;5008;50.656;7.188;2023-05-07T08:08:16;2.33;;;1.83;;
9938;SDS011;5008;50.656;7.188;2023-05-07T08:10:43;1.77;;;1.67;;
9938;SDS011;5008;50.656;7.188;2023-05-07T08:13:10;3.75;;;3.17;;
9938;SDS011;5008;50.656;7.188;2023-05-07T08:15:37;3.10;;;2.80;;
9938;SDS011;5008;50.656;7.188;2023-05-07T08:18:05;2.13;;;1.92;;
9938;SDS011;5008;50.656;7.188;2023-05-07T08:20:32;2.70;;;1.55;;
9938;SDS011;5008;50.656;7.188;2023-05-07T08:23:04;2.70;;;1.63;;
9938;SDS011;5008;50.656;7.188;2023-05-07T08:25:32;1.70;;;1.60;;
9938;SDS011;5008;50.656;7.188;2023-05-07T08:27:59;1.98;;;1.50;;
9938;SDS011;5008;50.656;7.188;2023-05-07T08:30:25;1.30;;;1.20;;
9938;SDS011;5008;50.656;7.188;2023-05-07T08:32:53;2.83;;;2.30;;
9938;SDS011;5008;50.656;7.188;2023-05-07T08:35:21;1.40;;;1.30;;
9938;SDS011;5008;50.656;7.188;2023-05-07T08:37:48;2.28;;;2.08;;
9938;SDS011;5008;50.656;7.188;2023-05-07T08:40:14;2.05;;;1.85;;
9938;SDS011;5008;50.656;7.188;2023-05-07T08:42:41;1.70;;;1.60;;
9938;SDS011;5008;50.656;7.188;2023-05-07T08:45:10;1.90;;;1.80;;
9938;SDS011;5008;50.656;7.188;2023-05-07T08:47:40;1.17;;;1.15;;
9938;SDS011;5008;50.656;7.188;2023-05-07T08:50:10;2.03;;;1.83;;
9938;SDS011;5008;50.656;7.188;2023-05-07T08:52:39;1.83;;;1.73;;
9938;SDS011;5008;50.656;7.188;2023-05-07T08:55:09;1.52;;;1.42;;
9938;SDS011;5008;50.656;7.188;2023-05-07T08:57:39;1.70;;;1.48;;
9938;SDS011;5008;50.656;7.188;2023-05-07T09:00:06;1.30;;;1.20;;
9938;SDS011;5008;50.656;7.188;2023-05-07T09:02:34;1.70;;;1.60;;
9938;SDS011;5008;50.656;7.188;2023-05-07T09:05:01;1.33;;;1.27;;
9938;SDS011;5008;50.656;7.188;2023-05-07T09:07:28;1.83;;;1.40;;
9938;SDS011;5008;50.656;7.188;2023-05-07T09:09:58;1.40;;;1.40;;
9938;SDS011;5008;50.656;7.188;2023-05-07T09:12:27;1.63;;;1.52;;
9938;SDS011;5008;50.656;7.188;2023-05-07T09:14:53;1.67;;;1.20;;
9938;SDS011;5008;50.656;7.188;2023-05-07T09:17:20;1.80;;;1.70;;
9938;SDS011;5008;50.656;7.188;2023-05-07T09:19:47;1.52;;;1.42;;
9938;SDS011;5008;50.656;7.188;2023-05-07T09:22:14;1.40;;;1.30;;
9938;SDS011;5008;50.656;7.188;2023-05-07T09:24:41;1.52;;;1.42;;
9938;SDS011;5008;50.656;7.188;2023-05-07T09:27:15;1.65;;;1.55;;
9938;SDS011;5008;50.656;7.188;2023-05-07T09:29:43;1.50;;;1.40;;
9938;SDS011;5008;50.656;7.188;2023-05-07T09:32:10;1.40;;;1.30;;
9938;SDS011;5008;50.656;7.188;2023-05-07T09:34:36;1.67;;;1.48;;
9938;SDS011;5008;50.656;7.188;2023-05-07T09:37:04;1.58;;;1.40;;
9938;SDS011;5008;50.656;7.188;2023-05-07T09:39:38;1.65;;;1.55;;
9938;SDS011;5008;50.656;7.188;2023-05-07T09:42:06;1.60;;;1.50;;
9938;SDS011;5008;50.656;7.188;2023-05-07T09:44:34;1.50;;;1.40;;
9938;SDS011;5008;50.656;7.188;2023-05-07T09:47:01;3.40;;;2.03;;
9938;SDS011;5008;50.656;7.188;2023-05-07T09:49:33;1.20;;;1.20;;
9938;SDS011;5008;50.656;7.188;2023-05-07T09:52:01;1.80;;;1.70;;
9938;SDS011;5008;50.656;7.188;2023-05-07T09:54:31;2.35;;;2.10;;
9938;SDS011;5008;50.656;7.188;2023-05-07T09:56:58;5.00;;;1.92;;
9938;SDS011;5008;50.656;7.188;2023-05-07T09:59:27;2.40;;;1.50;;
9938;SDS011;5008;50.656;7.188;2023-05-07T10:01:58;1.65;;;1.55;;
9938;SDS011;5008;50.656;7.188;2023-05-07T10:04:29;1.80;;;1.70;;
9938;SDS011;5008;50.656;7.188;2023-05-07T10:06:57;1.85;;;1.75;;
9938;SDS011;5008;50.656;7.188;2023-05-07T10:09:26;2.15;;;1.95;;
9938;SDS011;5008;50.656;7.188;2023-05-07T10:11:52;2.10;;;1.88;;
9938;SDS011;5008;50.656;7.188;2023-05-07T10:14:20;1.85;;;1.38;;
9938;SDS011;5008;50.656;7.188;2023-05-07T10:16:48;2.63;;;2.42;;
9938;SDS011;5008;50.656;7.188;2023-05-07T10:19:16;1.98;;;1.50;;
9938;SDS011;5008;50.656;7.188;2023-05-07T10:21:44;3.50;;;3.05;;
9938;SDS011;5008;50.656;7.188;2023-05-07T10:24:19;1.85;;;1.75;;
9938;SDS011;5008;50.656;7.188;2023-05-07T10:26:54;1.80;;;1.70;;
9938;SDS011;5008;50.656;7.188;2023-05-07T10:29:25;2.22;;;2.00;;
9938;SDS011;5008;50.656;7.188;2023-05-07T10:32:03;2.20;;;2.00;;
9938;SDS011;5008;50.656;7.188;2023-05-07T10:34:53;2.10;;;1.90;;
9938;SDS011;5008;50.656;7.188;2023-05-07T10:37:22;1.67;;;1.58;;
9938;SDS011;5008;50.656;7.188;2023-05-07T10:39:50;2.28;;;1.58;;
9938;SDS011;5008;50.656;7.188;2023-05-07T10:42:17;1.83;;;1.73;;
9938;SDS011;5008;50.656;7.188;2023-05-07T10:44:44;1.92;;;1.70;;
9938;SDS011;5008;50.656;7.188;2023-05-07T10:47:11;1.65;;;1.55;;
9938;SDS011;5008;50.656;7.188;2023-05-07T10:58:50;2.55;;;1.77;;
9938;SDS011;5008;50.656;7.188;2023-05-07T11:01:17;1.60;;;1.48;;
9938;SDS011;5008;50.656;7.188;2023-05-07T11:04:16;3.08;;;1.70;;
9938;SDS011;5008;50.656;7.188;2023-05-07T11:09:59;1.85;;;1.75;;
9938;SDS011;5008;50.656;7.188;2023-05-07T11:15:38;1.58;;;1.42;;
9938;SDS011;5008;50.656;7.188;2023-05-07T11:18:10;1.02;;;1.02;;
9938;SDS011;5008;50.656;7.188;2023-05-07T11:20:44;1.70;;;1.60;;
9938;SDS011;5008;50.656;7.188;2023-05-07T11:26:25;1.88;;;1.60;;
9938;SDS011;5008;50.656;7.188;2023-05-07T11:28:53;1.60;;;1.50;;
9938;SDS011;5008;50.656;7.188;2023-05-07T11:31:21;1.65;;;1.55;;
9938;SDS011;5008;50.656;7.188;2023-05-07T11:33:49;1.70;;;1.60;;
9938;SDS011;5008;50.656;7.188;2023-05-07T11:36:17;1.85;;;1.50;;
9938;SDS011;5008;50.656;7.188;2023-05-07T11:38:45;1.23;;;1.23;;
9938;SDS011;5008;50.656;7.188;2023-05-07T11:41:12;1.55;;;1.45;;
9938;SDS011;5008;50.656;7.188;2023-05-07T11:43:46;2.03;;;1.88;;
9938;SDS011;5008;50.656;7.188;2023-05-07T11:46:23;1.30;;;1.30;;
9938;SDS011;5008;50.656;7.188;2023-05-07T11:48:49;0.95;;;0.95;;
9938;SDS011;5008;50.656;7.188;2023-05-07T11:51:20;1.00;;;1.00;;
9938;SDS011;5008;50.656;7.188;2023-05-07T11:53:48;1.50;;;1.38;;
9938;SDS011;5008;50.656;7.188;2023-05-07T11:56:16;1.90;;;1.77;;
9938;SDS011;5008;50.656;7.188;2023-05-07T11:58:45;1.70;;;1.60;;
9938;SDS011;5008;50.656;7.188;2023-05-07T12:01:13;1.20;;;1.10;;
9938;SDS011;5008;50.656;7.188;2023-05-07T12:03:41;1.00;;;1.00;;
9938;SDS011;5008;50.656;7.188;2023-05-07T12:06:10;1.30;;;1.20;;
9938;SDS011;5008;50.656;7.188;2023-05-07T12:08:38;0.90;;;0.90;;
9938;SDS011;5008;50.656;7.188;2023-05-07T12:11:09;1.40;;;1.30;;
9938;SDS011;5008;50.656;7.188;2023-05-07T12:13:38;1.30;;;1.20;;
9938;SDS011;5008;50.656;7.188;2023-05-07T12:16:07;1.63;;;1.08;;
9938;SDS011;5008;50.656;7.188;2023-05-07T12:18:34;1.35;;;1.33;;
9938;SDS011;5008;50.656;7.188;2023-05-07T12:21:03;1.90;;;1.50;;
9938;SDS011;5008;50.656;7.188;2023-05-07T12:23:32;1.33;;;1.23;;
9938;SDS011;5008;50.656;7.188;2023-05-07T12:26:00;1.65;;;1.55;;
9938;SDS011;5008;50.656;7.188;2023-05-07T12:28:27;1.45;;;1.35;;
9938;SDS011;5008;50.656;7.188;2023-05-07T12:30:54;1.40;;;1.30;;
9938;SDS011;5008;50.656;7.188;2023-05-07T12:33:24;1.60;;;1.50;;
9938;SDS011;5008;50.656;7.188;2023-05-07T12:35:54;1.88;;;0.90;;
9938;SDS011;5008;50.656;7.188;2023-05-07T12:38:22;1.40;;;1.30;;
9938;SDS011;5008;50.656;7.188;2023-05-07T12:40:49;1.40;;;1.23;;
9938;SDS011;5008;50.656;7.188;2023-05-07T12:43:19;1.48;;;1.38;;
9938;SDS011;5008;50.656;7.188;2023-05-07T12:45:48;1.65;;;1.15;;
9938;SDS011;5008;50.656;7.188;2023-05-07T12:48:16;1.40;;;1.30;;
9938;SDS011;5008;50.656;7.188;2023-05-07T12:50:45;1.20;;;1.20;;
9938;SDS011;5008;50.656;7.188;2023-05-07T12:53:15;1.45;;;1.30;;
9938;SDS011;5008;50.656;7.188;2023-05-07T12:55:43;0.93;;;0.93;;
9938;SDS011;5008;50.656;7.188;2023-05-07T12:58:16;1.60;;;1.30;;
9938;SDS011;5008;50.656;7.188;2023-05-07T13:00:45;2.25;;;1.20;;
9938;SDS011;5008;50.656;7.188;2023-05-07T13:03:20;1.80;;;1.70;;
9938;SDS011;5008;50.656;7.188;2023-05-07T13:05:52;1.75;;;1.65;;
9938;SDS011;5008;50.656;7.188;2023-05-07T13:08:27;1.95;;;1.77;;
9938;SDS011;5008;50.656;7.188;2023-05-07T13:10:55;1.70;;;1.60;;
9938;SDS011;5008;50.656;7.188;2023-05-07T13:13:23;2.10;;;1.80;;
9938;SDS011;5008;50.656;7.188;2023-05-07T13:15:50;2.00;;;1.88;;
9938;SDS011;5008;50.656;7.188;2023-05-07T13:18:17;1.40;;;1.30;;
9938;SDS011;5008;50.656;7.188;2023-05-07T13:20:44;1.92;;;1.70;;
9938;SDS011;5008;50.656;7.188;2023-05-07T13:23:12;1.38;;;1.27;;
9938;SDS011;5008;50.656;7.188;2023-05-07T13:25:39;1.40;;;1.30;;
9938;SDS011;5008;50.656;7.188;2023-05-07T13:28:06;1.40;;;1.30;;
9938;SDS011;5008;50.656;7.188;2023-05-07T13:30:32;2.28;;;1.42;;
9938;SDS011;5008;50.656;7.188;2023-05-07T13:32:59;1.45;;;1.30;;
9938;SDS011;5008;50.656;7.188;2023-05-07T13:35:26;1.30;;;1.20;;
9938;SDS011;5008;50.656;7.188;2023-05-07T13:37:53;1.80;;;1.70;;
9938;SDS011;5008;50.656;7.188;2023-05-07T13:40:22;1.70;;;1.60;;
9938;SDS011;5008;50.656;7.188;2023-05-07T13:42:49;2.67;;;1.20;;
9938;SDS011;5008;50.656;7.188;2023-05-07T13:45:16;1.65;;;1.55;;
9938;SDS011;5008;50.656;7.188;2023-05-07T13:47:43;1.50;;;1.40;;
9938;SDS011;5008;50.656;7.188;2023-05-07T13:50:10;2.45;;;1.73;;
9938;SDS011;5008;50.656;7.188;2023-05-07T13:52:39;1.70;;;1.60;;
9938;SDS011;5008;50.656;7.188;2023-05-07T13:55:08;1.65;;;1.55;;
9938;SDS011;5008;50.656;7.188;2023-05-07T13:57:37;3.90;;;1.40;;
9938;SDS011;5008;50.656;7.188;2023-05-07T14:00:05;1.63;;;1.52;;
9938;SDS011;5008;50.656;7.188;2023-05-07T14:02:33;2.13;;;1.73;;
9938;SDS011;5008;50.656;7.188;2023-05-07T14:04:59;1.65;;;1.55;;
9938;SDS011;5008;50.656;7.188;2023-05-07T14:07:26;2.33;;;2.00;;
9938;SDS011;5008;50.656;7.188;2023-05-07T14:09:53;2.65;;;2.13;;
9938;SDS011;5008;50.656;7.188;2023-05-07T14:12:20;2.35;;;1.80;;
9938;SDS011;5008;50.656;7.188;2023-05-07T14:14:48;2.33;;;2.13;;
9938;SDS011;5008;50.656;7.188;2023-05-07T14:17:16;3.22;;;2.22;;
9938;SDS011;5008;50.656;7.188;2023-05-07T14:19:42;23.90;;;6.15;;
9938;SDS011;5008;50.656;7.188;2023-05-07T14:22:10;13.07;;;5.07;;
9938;SDS011;5008;50.656;7.188;2023-05-07T14:24:39;8.43;;;3.47;;
9938;SDS011;5008;50.656;7.188;2023-05-07T14:27:06;11.73;;;5.63;;
9938;SDS011;5008;50.656;7.188;2023-05-07T14:29:33;7.18;;;3.38;;
9938;SDS011;5008;50.656;7.188;2023-05-07T14:32:02;8.02;;;3.85;;
9938;SDS011;5008;50.656;7.188;2023-05-07T14:34:29;11.52;;;5.00;;
9938;SDS011;5008;50.656;7.188;2023-05-07T14:36:57;8.23;;;3.47;;
9938;SDS011;5008;50.656;7.188;2023-05-07T14:39:24;5.45;;;3.30;;
9938;SDS011;5008;50.656;7.188;2023-05-07T14:41:51;3.50;;;3.20;;
9938;SDS011;5008;50.656;7.188;2023-05-07T14:44:19;6.57;;;3.63;;
9938;SDS011;5008;50.656;7.188;2023-05-07T14:46:46;3.75;;;3.45;;
9938;SDS011;5008;50.656;7.188;2023-05-07T14:49:15;6.68;;;4.22;;
9938;SDS011;5008;50.656;7.188;2023-05-07T14:51:42;9.95;;;5.00;;
9938;SDS011;5008;50.656;7.188;2023-05-07T14:54:10;6.32;;;4.05;;
9938;SDS011;5008;50.656;7.188;2023-05-07T14:56:37;4.82;;;3.70;;
9938;SDS011;5008;50.656;7.188;2023-05-07T14:59:04;5.88;;;3.47;;
9938;SDS011;5008;50.656;7.188;2023-05-07T15:01:31;4.50;;;3.53;;
9938;SDS011;5008;50.656;7.188;2023-05-07T15:03:58;4.45;;;4.05;;
9938;SDS011;5008;50.656;7.188;2023-05-07T15:06:27;4.43;;;3.33;;
9938;SDS011;5008;50.656;7.188;2023-05-07T15:08:54;4.63;;;3.50;;
9938;SDS011;5008;50.656;7.188;2023-05-07T15:11:21;3.83;;;3.33;;
9938;SDS011;5008;50.656;7.188;2023-05-07T15:13:48;3.90;;;3.30;;
9938;SDS011;5008;50.656;7.188;2023-05-07T15:16:15;6.28;;;3.63;;
9938;SDS011;5008;50.656;7.188;2023-05-07T15:18:42;4.28;;;3.88;;
9938;SDS011;5008;50.656;7.188;2023-05-07T15:21:09;5.13;;;3.78;;
9938;SDS011;5008;50.656;7.188;2023-05-07T15:23:37;4.75;;;3.80;;
9938;SDS011;5008;50.656;7.188;2023-05-07T15:26:06;3.78;;;3.50;;
9938;SDS011;5008;50.656;7.188;2023-05-07T15:28:33;5.05;;;3.75;;
9938;SDS011;5008;50.656;7.188;2023-05-07T15:31:00;5.15;;;4.22;;
9938;SDS011;5008;50.656;7.188;2023-05-07T15:33:27;6.30;;;4.55;;
9938;SDS011;5008;50.656;7.188;2023-05-07T15:35:53;6.47;;;3.92;;
9938;SDS011;5008;50.656;7.188;2023-05-07T15:38:23;5.05;;;3.53;;
9938;SDS011;5008;50.656;7.188;2023-05-07T15:40:52;6.50;;;3.50;;
9938;SDS011;5008;50.656;7.188;2023-05-07T15:43:19;9.23;;;3.25;;
9938;SDS011;5008;50.656;7.188;2023-05-07T15:45:46;7.25;;;2.75;;
9938;SDS011;5008;50.656;7.188;2023-05-07T15:48:13;6.88;;;2.92;;
9938;SDS011;5008;50.656;7.188;2023-05-07T15:50:40;6.63;;;2.60;;
9938;SDS011;5008;50.656;7.188;2023-05-07T15:53:07;3.50;;;2.90;;
9938;SDS011;5008;50.656;7.188;2023-05-07T15:55:34;5.70;;;3.25;;
9938;SDS011;5008;50.656;7.188;2023-05-07T15:58:02;3.28;;;2.85;;
9938;SDS011;5008;50.656;7.188;2023-05-07T16:00:30;3.30;;;2.83;;
9938;SDS011;5008;50.656;7.188;2023-05-07T16:03:00;3.90;;;3.15;;
9938;SDS011;5008;50.656;7.188;2023-05-07T16:05:27;4.57;;;2.90;;
9938;SDS011;5008;50.656;7.188;2023-05-07T16:07:53;4.03;;;3.00;;
9938;SDS011;5008;50.656;7.188;2023-05-07T16:10:21;3.85;;;3.22;;
9938;SDS011;5008;50.656;7.188;2023-05-07T16:12:48;4.07;;;3.67;;
9938;SDS011;5008;50.656;7.188;2023-05-07T16:15:16;5.38;;;4.00;;
9938;SDS011;5008;50.656;7.188;2023-05-07T16:17:44;4.57;;;3.70;;
9938;SDS011;5008;50.656;7.188;2023-05-07T16:20:12;4.20;;;3.80;;
9938;SDS011;5008;50.656;7.188;2023-05-07T16:22:39;4.88;;;4.45;;
9938;SDS011;5008;50.656;7.188;2023-05-07T16:25:06;5.38;;;4.43;;
9938;SDS011;5008;50.656;7.188;2023-05-07T16:27:34;6.35;;;5.70;;
9938;SDS011;5008;50.656;7.188;2023-05-07T16:30:00;5.55;;;5.05;;
9938;SDS011;5008;50.656;7.188;2023-05-07T16:32:29;5.60;;;5.00;;
9938;SDS011;5008;50.656;7.188;2023-05-07T16:34:55;8.07;;;5.30;;
9938;SDS011;5008;50.656;7.188;2023-05-07T16:37:22;9.35;;;5.72;;
9938;SDS011;5008;50.656;7.188;2023-05-07T16:39:49;6.97;;;5.18;;
9938;SDS011;5008;50.656;7.188;2023-05-07T16:42:16;7.07;;;6.38;;
9938;SDS011;5008;50.656;7.188;2023-05-07T16:44:43;7.70;;;6.13;;
9938;SDS011;5008;50.656;7.188;2023-05-07T16:47:09;6.15;;;5.45;;
9938;SDS011;5008;50.656;7.188;2023-05-07T16:49:37;7.68;;;6.55;;
9938;SDS011;5008;50.656;7.188;2023-05-07T16:52:04;7.60;;;6.30;;
9938;SDS011;5008;50.656;7.188;2023-05-07T16:54:32;7.18;;;6.47;;
9938;SDS011;5008;50.656;7.188;2023-05-07T16:57:00;6.32;;;5.72;;
9938;SDS011;5008;50.656;7.188;2023-05-07T16:59:27;10.48;;;7.35;;
9938;SDS011;5008;50.656;7.188;2023-05-07T17:01:56;8.10;;;7.30;;
9938;SDS011;5008;50.656;7.188;2023-05-07T17:04:23;10.60;;;8.27;;
9938;SDS011;5008;50.656;7.188;2023-05-07T17:06:51;8.20;;;7.40;;
9938;SDS011;5008;50.656;7.188;2023-05-07T17:09:18;7.68;;;6.97;;
9938;SDS011;5008;50.656;7.188;2023-05-07T17:11:45;7.47;;;6.28;;
9938;SDS011;5008;50.656;7.188;2023-05-07T17:14:12;7.32;;;6.28;;
9938;SDS011;5008;50.656;7.188;2023-05-07T17:16:38;7.53;;;6.13;;
9938;SDS011;5008;50.656;7.188;2023-05-07T17:19:05;8.95;;;6.88;;
9938;SDS011;5008;50.656;7.188;2023-05-07T17:21:32;7.90;;;6.85;;
9938;SDS011;5008;50.656;7.188;2023-05-07T17:24:01;6.85;;;6.25;;
9938;SDS011;5008;50.656;7.188;2023-05-07T17:26:28;7.25;;;6.60;;
9938;SDS011;5008;50.656;7.188;2023-05-07T17:28:55;6.35;;;5.85;;
9938;SDS011;5008;50.656;7.188;2023-05-07T17:31:22;7.07;;;6.47;;
9938;SDS011;5008;50.656;7.188;2023-05-07T17:33:49;7.65;;;6.40;;
9938;SDS011;5008;50.656;7.188;2023-05-07T17:36:16;7.25;;;6.55;;
9938;SDS011;5008;50.656;7.188;2023-05-07T17:38:43;9.93;;;7.35;;
9938;SDS011;5008;50.656;7.188;2023-05-07T17:41:11;7.97;;;7.28;;
9938;SDS011;5008;50.656;7.188;2023-05-07T17:43:38;8.27;;;6.72;;
9938;SDS011;5008;50.656;7.188;2023-05-07T17:46:06;7.40;;;6.80;;
9938;SDS011;5008;50.656;7.188;2023-05-07T17:48:34;9.27;;;8.30;;
9938;SDS011;5008;50.656;7.188;2023-05-07T17:51:01;8.68;;;7.88;;
9938;SDS011;5008;50.656;7.188;2023-05-07T17:53:27;11.95;;;8.57;;
9938;SDS011;5008;50.656;7.188;2023-05-07T17:55:54;8.77;;;7.68;;
9938;SDS011;5008;50.656;7.188;2023-05-07T17:58:23;9.23;;;8.00;;
9938;SDS011;5008;50.656;7.188;2023-05-07T18:00:51;8.68;;;7.60;;
9938;SDS011;5008;50.656;7.188;2023-05-07T18:03:19;8.18;;;7.38;;
9938;SDS011;5008;50.656;7.188;2023-05-07T18:05:48;8.68;;;7.88;;
9938;SDS011;5008;50.656;7.188;2023-05-07T18:08:15;8.98;;;8.07;;
9938;SDS011;5008;50.656;7.188;2023-05-07T18:10:41;8.20;;;7.40;;
9938;SDS011;5008;50.656;7.188;2023-05-07T18:13:08;8.25;;;7.55;;
9938;SDS011;5008;50.656;7.188;2023-05-07T18:15:36;8.98;;;7.85;;
9938;SDS011;5008;50.656;7.188;2023-05-07T18:18:03;9.30;;;8.27;;
9938;SDS011;5008;50.656;7.188;2023-05-07T18:20:30;10.32;;;9.18;;
9938;SDS011;5008;50.656;7.188;2023-05-07T18:22:57;9.30;;;8.07;;
9938;SDS011;5008;50.656;7.188;2023-05-07T18:25:24;8.57;;;7.68;;
9938;SDS011;5008;50.656;7.188;2023-05-07T18:27:51;8.02;;;6.80;;
9938;SDS011;5008;50.656;7.188;2023-05-07T18:30:18;8.55;;;7.45;;
9938;SDS011;5008;50.656;7.188;2023-05-07T18:32:47;8.27;;;7.22;;
9938;SDS011;5008;50.656;7.188;2023-05-07T18:35:14;8.02;;;7.22;;
9938;SDS011;5008;50.656;7.188;2023-05-07T18:37:41;8.63;;;7.50;;
9938;SDS011;5008;50.656;7.188;2023-05-07T18:40:08;8.10;;;7.28;;
9938;SDS011;5008;50.656;7.188;2023-05-07T18:42:36;8.18;;;7.38;;
9938;SDS011;5008;50.656;7.188;2023-05-07T18:45:03;8.45;;;7.35;;
9938;SDS011;5008;50.656;7.188;2023-05-07T18:47:30;7.28;;;6.72;;
9938;SDS011;5008;50.656;7.188;2023-05-07T18:49:58;7.97;;;7.30;;
9938;SDS011;5008;50.656;7.188;2023-05-07T18:52:25;8.68;;;7.43;;
9938;SDS011;5008;50.656;7.188;2023-05-07T18:54:53;7.15;;;6.65;;
9938;SDS011;5008;50.656;7.188;2023-05-07T18:57:20;8.32;;;7.25;;
9938;SDS011;5008;50.656;7.188;2023-05-07T18:59:46;7.63;;;6.65;;
9938;SDS011;5008;50.656;7.188;2023-05-07T19:02:13;7.30;;;6.60;;
9938;SDS011;5008;50.656;7.188;2023-05-07T19:04:40;7.65;;;6.95;;
9938;SDS011;5008;50.656;7.188;2023-05-07T19:07:08;7.88;;;6.47;;
9938;SDS011;5008;50.656;7.188;2023-05-07T19:09:35;7.28;;;6.55;;
9938;SDS011;5008;50.656;7.188;2023-05-07T19:12:02;7.88;;;7.07;;
9938;SDS011;5008;50.656;7.188;2023-05-07T19:14:29;8.77;;;7.05;;
9938;SDS011;5008;50.656;7.188;2023-05-07T19:16:56;7.22;;;6.55;;
9938;SDS011;5008;50.656;7.188;2023-05-07T19:19:25;7.15;;;6.55;;
9938;SDS011;5008;50.656;7.188;2023-05-07T19:21:52;7.93;;;6.95;;
9938;SDS011;5008;50.656;7.188;2023-05-07T19:24:20;8.68;;;7.78;;
9938;SDS011;5008;50.656;7.188;2023-05-07T19:26:47;7.50;;;6.80;;
9938;SDS011;5008;50.656;7.188;2023-05-07T19:29:14;7.43;;;6.75;;
9938;SDS011;5008;50.656;7.188;2023-05-07T19:31:41;6.40;;;5.80;;
9938;SDS011;5008;50.656;7.188;2023-05-07T19:34:08;6.90;;;6.30;;
9938;SDS011;5008;50.656;7.188;2023-05-07T19:36:35;7.93;;;7.18;;
9938;SDS011;5008;50.656;7.188;2023-05-07T19:39:02;7.38;;;6.78;;